Time;durP1;ratioP1;P1;durP2;ratioP2;P2;SDS_P1;SDS_P2;PMS_P1;PMS_P2;Temp;Humidity;BMP_temperature;BMP_pressure;BME280_temperature;BME280_humidity;BME280_pressure;Samples;Min_cycle;Max_cycle;Signal;HPM_P1;HPM_P2
2021/07/17 00:00:50;;;;;;;34.90;11.37;;;15.60;96.90;;;;;;5114276;28;20048;-68
2021/07/17 00:03:16;;;;;;;28.93;10.43;;;15.60;96.90;;;;;;5113433;28;20048;-68
2021/07/17 00:05:42;;;;;;;33.80;12.03;;;15.60;96.90;;;;;;5114193;28;20051;-68
2021/07/17 00:08:08;;;;;;;30.87;11.60;;;15.60;96.90;;;;;;5114367;28;20465;-68
2021/07/17 00:10:42;;;;;;;36.13;11.10;;;15.60;96.90;;;;;;5113278;28;20488;-68
2021/07/17 00:13:08;;;;;;;26.90;11.30;;;15.60;97.00;;;;;;5114194;28;20051;-68
2021/07/17 00:15:35;;;;;;;30.53;11.43;;;15.60;97.00;;;;;;5113797;28;20073;-68
2021/07/17 00:18:01;;;;;;;33.83;11.63;;;15.50;97.00;;;;;;5112927;28;20054;-68
2021/07/17 00:20:27;;;;;;;35.83;12.13;;;15.50;97.00;;;;;;5112889;28;20507;-68
2021/07/17 00:22:53;;;;;;;37.27;13.00;;;15.50;97.10;;;;;;5113580;28;20043;-68
2021/07/17 00:25:21;;;;;;;33.80;13.63;;;15.50;97.10;;;;;;5112460;28;20051;-68
2021/07/17 00:27:47;;;;;;;35.43;12.77;;;15.50;97.20;;;;;;5113483;28;20052;-67
2021/07/17 00:30:14;;;;;;;37.30;13.43;;;15.40;97.20;;;;;;5113344;28;20385;-68
2021/07/17 00:32:40;;;;;;;32.83;12.47;;;15.40;97.30;;;;;;5112810;28;20457;-67
2021/07/17 00:35:07;;;;;;;35.73;13.23;;;15.40;97.30;;;;;;5113458;28;20075;-68
2021/07/17 00:37:33;;;;;;;35.77;11.93;;;15.40;97.40;;;;;;5113118;28;20400;-68
2021/07/17 00:40:08;;;;;;;34.83;12.40;;;15.40;97.40;;;;;;5112779;28;20152;-68
2021/07/17 00:42:35;;;;;;;37.80;12.13;;;15.40;97.40;;;;;;5113706;28;20411;-68
2021/07/17 00:45:01;;;;;;;32.97;12.57;;;15.40;97.40;;;;;;5112554;28;20058;-68
2021/07/17 00:47:28;;;;;;;29.80;11.77;;;15.40;97.40;;;;;;5112844;28;20047;-68
2021/07/17 00:49:54;;;;;;;33.37;12.93;;;15.40;97.40;;;;;;5113337;28;20053;-68
2021/07/17 00:52:19;;;;;;;29.90;12.57;;;15.40;97.40;;;;;;5112097;28;20546;-68
2021/07/17 00:54:48;;;;;;;29.77;12.17;;;15.40;97.40;;;;;;5113407;28;20057;-68
2021/07/17 00:57:15;;;;;;;32.40;11.60;;;15.30;97.50;;;;;;5112861;28;20112;-68
2021/07/17 00:59:43;;;;;;;31.43;12.17;;;15.30;97.50;;;;;;5112235;28;20044;-68
2021/07/17 01:02:11;;;;;;;29.40;11.87;;;15.30;97.50;;;;;;5112930;28;20044;-68
2021/07/17 01:04:37;;;;;;;31.53;11.83;;;15.30;97.50;;;;;;5113023;28;20040;-68
2021/07/17 01:07:03;;;;;;;32.63;11.07;;;15.30;97.60;;;;;;5112327;28;20055;-68
2021/07/17 01:09:29;;;;;;;28.90;11.30;;;15.30;97.50;;;;;;5112682;28;20051;-68
2021/07/17 01:11:56;;;;;;;27.43;11.80;;;15.30;97.60;;;;;;5112949;28;20057;-68
2021/07/17 01:14:22;;;;;;;31.40;11.93;;;15.20;97.60;;;;;;5111675;28;20128;-68
2021/07/17 01:16:48;;;;;;;27.63;11.10;;;15.30;97.60;;;;;;5112854;28;20407;-68
2021/07/17 01:19:14;;;;;;;33.50;12.97;;;15.20;97.60;;;;;;5112383;28;20052;-68
2021/07/17 01:21:40;;;;;;;36.57;11.63;;;15.20;97.70;;;;;;5111739;28;20458;-67
2021/07/17 01:24:05;;;;;;;34.07;11.70;;;15.20;97.70;;;;;;5112646;28;20040;-68
2021/07/17 01:26:31;;;;;;;22.33;10.60;;;15.20;97.80;;;;;;5112226;28;20104;-68
2021/07/17 01:28:57;;;;;;;24.37;10.33;;;15.30;97.80;;;;;;5111850;28;20443;-67
2021/07/17 01:31:24;;;;;;;33.70;12.10;;;15.30;97.80;;;;;;5112214;28;20055;-67
2021/07/17 01:33:49;;;;;;;26.60;10.83;;;15.30;97.80;;;;;;5112474;28;20131;-67
2021/07/17 01:36:15;;;;;;;29.27;9.53;;;15.30;97.80;;;;;;5111448;28;20127;-68
2021/07/17 01:38:42;;;;;;;29.73;9.50;;;15.40;97.90;;;;;;5112644;28;20047;-68
2021/07/17 01:41:09;;;;;;;34.60;9.67;;;15.40;97.80;;;;;;5112305;28;20058;-68
2021/07/17 01:43:36;;;;;;;30.17;10.20;;;15.40;97.80;;;;;;5111758;28;20043;-68
2021/07/17 01:46:02;;;;;;;23.23;8.90;;;15.40;97.80;;;;;;5112185;28;20048;-68
2021/07/17 01:48:28;;;;;;;26.93;8.90;;;15.50;97.90;;;;;;5110756;28;20086;-68
2021/07/17 01:50:54;;;;;;;24.20;8.87;;;15.60;98.00;;;;;;5112073;28;20100;-68
2021/07/17 01:53:21;;;;;;;25.10;7.70;;;15.60;98.00;;;;;;5111550;28;20522;-68
2021/07/17 01:55:47;;;;;;;25.37;8.60;;;15.70;97.90;;;;;;5111047;28;20050;-68
2021/07/17 01:58:12;;;;;;;23.37;7.57;;;15.70;97.90;;;;;;5111378;28;20130;-68
2021/07/17 02:00:38;;;;;;;22.97;8.50;;;15.80;97.80;;;;;;5112054;28;20080;-69
2021/07/17 02:03:08;;;;;;;27.97;8.80;;;15.80;97.80;;;;;;5111028;28;20039;-68
2021/07/17 02:05:36;;;;;;;27.47;8.87;;;15.80;97.80;;;;;;5112023;28;20051;-68
2021/07/17 02:08:02;;;;;;;27.63;8.87;;;15.90;97.90;;;;;;5111507;28;20052;-68
2021/07/17 02:10:31;;;;;;;19.73;8.23;;;15.90;97.80;;;;;;5110689;28;20390;-68
2021/07/17 02:13:06;;;;;;;24.17;7.60;;;15.90;97.80;;;;;;5111693;28;20051;-68
2021/07/17 02:15:35;;;;;;;26.87;7.80;;;15.90;97.70;;;;;;5111667;28;20055;-68
2021/07/17 02:18:02;;;;;;;22.60;8.10;;;15.90;97.70;;;;;;5111114;28;20081;-68
2021/07/17 02:20:28;;;;;;;24.47;7.70;;;15.90;97.70;;;;;;5110921;28;20067;-68
2021/07/17 02:22:54;;;;;;;21.53;7.80;;;15.90;97.70;;;;;;5111613;28;20446;-68
2021/07/17 02:25:20;;;;;;;28.63;8.17;;;15.90;97.70;;;;;;5110569;28;20043;-68
2021/07/17 02:27:46;;;;;;;21.70;7.00;;;15.90;98.10;;;;;;5111405;28;20048;-68
2021/07/17 02:30:12;;;;;;;24.30;7.37;;;15.90;97.70;;;;;;5111463;28;20054;-68
2021/07/17 02:32:38;;;;;;;22.93;7.40;;;15.90;97.80;;;;;;5110625;28;20055;-68
2021/07/17 02:35:05;;;;;;;18.83;7.47;;;15.90;97.70;;;;;;5111313;28;20047;-68
2021/07/17 02:37:30;;;;;;;17.77;6.77;;;15.90;97.70;;;;;;5110554;28;20517;-68
2021/07/17 02:39:56;;;;;;;23.73;7.40;;;15.90;97.60;;;;;;5111195;28;20055;-68
2021/07/17 02:42:22;;;;;;;21.40;7.63;;;15.90;97.70;;;;;;5111214;28;20054;-68
2021/07/17 02:44:49;;;;;;;19.07;7.43;;;15.90;97.60;;;;;;5110780;28;20789;-68
2021/07/17 02:47:18;;;;;;;25.57;7.83;;;15.90;97.70;;;;;;5111354;28;20059;-68
2021/07/17 02:49:44;;;;;;;22.23;7.80;;;15.90;97.70;;;;;;5111344;28;20048;-68
2021/07/17 02:52:09;;;;;;;19.77;6.93;;;15.80;97.70;;;;;;5110327;28;20048;-69
2021/07/17 02:54:35;;;;;;;21.93;7.47;;;15.90;97.70;;;;;;5111161;28;20043;-68
2021/07/17 02:57:01;;;;;;;26.03;8.13;;;15.80;97.70;;;;;;5111303;28;20048;-68
2021/07/17 02:59:26;;;;;;;18.83;6.93;;;15.90;97.70;;;;;;5111946;28;20044;-68
2021/07/17 03:01:54;;;;;;;21.80;7.93;;;15.80;97.70;;;;;;5115557;28;20127;-68
2021/07/17 03:04:19;;;;;;;21.47;7.43;;;15.90;97.80;;;;;;5115130;28;20171;-68
2021/07/17 03:06:45;;;;;;;16.60;6.50;;;15.80;97.80;;;;;;5114519;28;20099;-68
2021/07/17 03:09:11;;;;;;;16.63;6.50;;;15.80;97.80;;;;;;5114972;28;20075;-68
2021/07/17 03:11:36;;;;;;;22.87;7.87;;;15.80;97.70;;;;;;5115251;28;20044;-68
2021/07/17 03:14:03;;;;;;;17.93;7.23;;;15.80;97.80;;;;;;5114131;28;20039;-68
2021/07/17 03:16:31;;;;;;;21.93;6.73;;;15.80;97.80;;;;;;5114501;28;20096;-68
2021/07/17 03:18:58;;;;;;;17.23;6.40;;;15.80;97.80;;;;;;5114488;28;20140;-68
2021/07/17 03:21:23;;;;;;;29.87;6.87;;;15.80;97.80;;;;;;5113523;28;20059;-68
2021/07/17 03:23:49;;;;;;;20.50;6.97;;;15.80;97.80;;;;;;5114649;28;20050;-68
2021/07/17 03:26:16;;;;;;;24.03;7.50;;;15.80;97.90;;;;;;5114172;28;20091;-68
2021/07/17 03:28:42;;;;;;;17.87;7.17;;;15.80;97.90;;;;;;5114023;28;20110;-68
2021/07/17 03:31:08;;;;;;;18.07;7.30;;;15.80;98.00;;;;;;5114479;28;20058;-68
2021/07/17 03:33:35;;;;;;;22.47;7.20;;;15.80;98.00;;;;;;5114415;28;20055;-68
2021/07/17 03:36:01;;;;;;;21.73;7.10;;;15.80;98.00;;;;;;5113762;28;20047;-68
2021/07/17 03:38:27;;;;;;;24.70;7.53;;;15.80;98.00;;;;;;5114412;28;20133;-68
2021/07/17 03:40:54;;;;;;;27.00;7.00;;;15.80;98.00;;;;;;5113853;28;20101;-68
2021/07/17 03:43:19;;;;;;;25.57;7.13;;;15.90;98.40;;;;;;5114161;28;20555;-68
2021/07/17 03:45:45;;;;;;;23.60;7.80;;;15.90;98.00;;;;;;5114412;28;20051;-68
2021/07/17 03:48:11;;;;;;;17.43;7.17;;;15.90;98.00;;;;;;5113345;28;20475;-68
2021/07/17 03:50:36;;;;;;;16.57;6.33;;;15.90;98.00;;;;;;5114166;28;20051;-68
2021/07/17 03:53:03;;;;;;;17.73;6.67;;;15.90;98.00;;;;;;5114309;28;20488;-67
2021/07/17 03:55:29;;;;;;;17.13;7.00;;;15.90;98.00;;;;;;5113279;28;20115;-68
2021/07/17 03:57:56;;;;;;;19.33;6.83;;;15.90;98.00;;;;;;5114086;28;20067;-68
2021/07/17 04:00:22;;;;;;;17.40;6.03;;;15.90;98.00;;;;;;5113984;28;20566;-68
2021/07/17 04:02:48;;;;;;;17.93;7.47;;;16.00;98.10;;;;;;5113262;28;20039;-68
2021/07/17 04:05:15;;;;;;;21.23;6.40;;;15.90;98.00;;;;;;5113432;28;20196;-68
2021/07/17 04:07:42;;;;;;;21.13;6.00;;;16.00;98.00;;;;;;5113867;28;20058;-68
2021/07/17 04:10:10;;;;;;;17.37;6.47;;;16.00;98.00;;;;;;5112739;28;20122;-67
2021/07/17 04:12:37;;;;;;;19.83;6.57;;;16.00;98.00;;;;;;5113596;28;20488;-68
2021/07/17 04:15:06;;;;;;;17.63;6.40;;;16.00;98.00;;;;;;5113703;28;20039;-68
2021/07/17 04:17:32;;;;;;;19.47;6.67;;;15.90;98.00;;;;;;5112655;28;20052;-68
2021/07/17 04:19:58;;;;;;;19.10;6.43;;;16.00;98.00;;;;;;5113349;28;20533;-68
2021/07/17 04:22:24;;;;;;;18.53;5.83;;;16.00;98.00;;;;;;5113306;28;20052;-68
2021/07/17 04:24:49;;;;;;;19.63;5.50;;;16.00;98.00;;;;;;5112773;28;20417;-68
2021/07/17 04:27:15;;;;;;;24.43;6.00;;;16.00;98.00;;;;;;5112928;28;20458;-68
2021/07/17 04:29:41;;;;;;;20.57;6.57;;;16.00;98.00;;;;;;5113565;28;20047;-68
2021/07/17 04:32:07;;;;;;;18.10;5.60;;;16.10;98.00;;;;;;5112504;28;20519;-68
2021/07/17 04:34:33;;;;;;;21.30;6.47;;;16.10;98.10;;;;;;5113044;28;20059;-68
2021/07/17 04:36:59;;;;;;;16.40;6.27;;;16.20;98.10;;;;;;5113325;28;20063;-68
2021/07/17 04:39:25;;;;;;;17.67;5.57;;;16.30;98.10;;;;;;5112737;28;20091;-68
2021/07/17 04:41:51;;;;;;;21.80;6.53;;;16.40;97.90;;;;;;5113171;28;20101;-68
2021/07/17 04:44:17;;;;;;;17.30;5.50;;;16.40;97.80;;;;;;5112253;28;20143;-68
2021/07/17 04:46:43;;;;;;;17.40;5.23;;;16.50;97.70;;;;;;5112937;28;20485;-68
2021/07/17 04:49:08;;;;;;;18.13;6.00;;;16.50;97.70;;;;;;5112884;28;20054;-68
2021/07/17 04:51:34;;;;;;;13.37;4.90;;;16.50;97.70;;;;;;5112895;28;20451;-68
2021/07/17 04:54:00;;;;;;;18.17;5.50;;;16.50;97.60;;;;;;5113651;28;20139;-68
2021/07/17 04:56:25;;;;;;;16.53;5.20;;;16.60;97.60;;;;;;5113737;28;20067;-68
2021/07/17 04:58:51;;;;;;;16.20;5.50;;;16.60;97.60;;;;;;5113167;28;20043;-68
2021/07/17 05:01:18;;;;;;;17.27;5.33;;;16.60;97.60;;;;;;5112949;28;20372;-68
2021/07/17 05:03:44;;;;;;;17.90;5.23;;;16.60;97.50;;;;;;5112665;28;20051;-68
2021/07/17 05:06:10;;;;;;;15.00;5.90;;;16.60;97.50;;;;;;5111473;28;20453;-68
2021/07/17 05:08:35;;;;;;;16.17;5.20;;;16.70;97.50;;;;;;5112763;28;20184;-67
2021/07/17 05:11:02;;;;;;;17.90;5.03;;;16.70;97.40;;;;;;5112286;28;20145;-68
2021/07/17 05:13:27;;;;;;;13.80;5.17;;;16.70;97.40;;;;;;5111695;28;20448;-68
2021/07/17 05:15:53;;;;;;;12.00;5.30;;;16.70;97.40;;;;;;5112558;28;20047;-67
2021/07/17 05:18:21;;;;;;;14.90;5.13;;;16.70;97.30;;;;;;5112032;28;20856;-68
2021/07/17 05:20:47;;;;;;;14.47;5.33;;;16.80;97.40;;;;;;5111525;28;20051;-68
2021/07/17 05:23:13;;;;;;;19.63;5.70;;;16.90;97.50;;;;;;5111473;28;20460;-69
2021/07/17 05:25:39;;;;;;;14.60;5.47;;;17.00;97.10;;;;;;5112346;28;20096;-67
2021/07/17 05:28:05;;;;;;;18.47;6.43;;;17.10;96.90;;;;;;5111027;28;20365;-68
2021/07/17 05:30:31;;;;;;;21.63;6.90;;;17.10;97.00;;;;;;5112303;28;20055;-68
2021/07/17 05:32:57;;;;;;;24.40;7.53;;;17.10;97.10;;;;;;5111920;28;20044;-68
2021/07/17 05:35:27;;;;;;;21.07;7.37;;;17.10;97.30;;;;;;5111427;28;20167;-67
2021/07/17 05:37:54;;;;;;;23.53;7.57;;;17.20;97.60;;;;;;5111933;28;20515;-68
2021/07/17 05:40:20;;;;;;;21.00;6.77;;;17.20;97.80;;;;;;5111080;28;20054;-68
2021/07/17 05:42:46;;;;;;;30.20;8.07;;;17.30;97.90;;;;;;5112147;28;20067;-67
2021/07/17 05:45:11;;;;;;;25.97;7.93;;;17.30;97.80;;;;;;5111474;28;20047;-68
2021/07/17 05:47:37;;;;;;;22.97;7.77;;;17.40;97.80;;;;;;5111009;28;20134;-68
2021/07/17 05:50:04;;;;;;;24.47;6.67;;;17.50;97.70;;;;;;5111562;28;20112;-68
2021/07/17 05:52:29;;;;;;;25.63;7.40;;;17.50;97.70;;;;;;5111752;28;20488;-67
2021/07/17 05:54:55;;;;;;;18.03;6.80;;;17.60;97.70;;;;;;5111101;28;20168;-67
2021/07/17 05:57:20;;;;;;;20.73;7.17;;;17.60;97.70;;;;;;5111327;28;20047;-67
2021/07/17 05:59:46;;;;;;;20.43;6.93;;;17.60;97.70;;;;;;5111571;28;20135;-69
2021/07/17 06:02:12;;;;;;;28.33;7.00;;;17.60;97.70;;;;;;5110556;28;20051;-69
2021/07/17 06:04:37;;;;;;;20.67;6.83;;;17.60;97.60;;;;;;5111473;28;20497;-68
2021/07/17 06:07:03;;;;;;;22.13;6.17;;;17.70;97.70;;;;;;5111374;28;20051;-71
2021/07/17 06:09:29;;;;;;;19.37;6.40;;;17.70;97.60;;;;;;5110608;28;20095;-69
2021/07/17 06:11:54;;;;;;;28.10;7.10;;;17.70;97.60;;;;;;5111234;28;20055;-69
2021/07/17 06:14:20;;;;;;;20.97;5.80;;;17.90;97.50;;;;;;5111123;28;20055;-69
2021/07/17 06:16:46;;;;;;;16.97;5.30;;;17.90;97.30;;;;;;5110246;28;20067;-69
2021/07/17 06:19:12;;;;;;;16.07;5.27;;;17.90;97.10;;;;;;5111154;28;20052;-69
2021/07/17 06:21:38;;;;;;;15.03;5.40;;;17.90;97.00;;;;;;5111312;28;20464;-69
2021/07/17 06:24:04;;;;;;;14.70;5.87;;;18.00;96.90;;;;;;5110627;28;20051;-68
2021/07/17 06:26:29;;;;;;;17.57;5.73;;;18.00;96.90;;;;;;5110987;28;20050;-70
2021/07/17 06:28:55;;;;;;;14.90;4.97;;;18.10;96.80;;;;;;5111190;28;20507;-68
2021/07/17 06:31:21;;;;;;;17.97;5.17;;;18.10;96.90;;;;;;5110274;28;20100;-69
2021/07/17 06:33:47;;;;;;;14.40;5.30;;;18.10;96.40;;;;;;5113594;28;20373;-69
2021/07/17 06:36:14;;;;;;;16.90;5.30;;;18.20;96.30;;;;;;5114972;28;20060;-68
2021/07/17 06:38:40;;;;;;;16.97;4.97;;;18.20;96.20;;;;;;5114648;28;20047;-68
2021/07/17 06:41:05;;;;;;;16.57;4.80;;;18.30;96.00;;;;;;5114677;28;20452;-69
2021/07/17 06:43:31;;;;;;;16.10;4.93;;;18.40;95.70;;;;;;5115136;28;20040;-69
2021/07/17 06:45:57;;;;;;;16.10;4.60;;;18.40;95.50;;;;;;5114314;28;20468;-69
2021/07/17 06:48:23;;;;;;;16.27;4.37;;;18.50;95.40;;;;;;5114861;28;20119;-68
2021/07/17 06:50:48;;;;;;;14.60;4.67;;;18.80;94.90;;;;;;5114147;28;20051;-68
2021/07/17 06:53:15;;;;;;;14.97;4.83;;;18.90;94.30;;;;;;5114995;27;20052;-68
2021/07/17 06:55:41;;;;;;;17.53;3.90;;;18.90;94.00;;;;;;5114639;28;20051;-68
2021/07/17 06:58:06;;;;;;;13.37;4.10;;;18.90;93.90;;;;;;5114017;28;20043;-67
2021/07/17 07:00:34;;;;;;;13.03;4.20;;;18.80;93.80;;;;;;5115086;28;20116;-68
2021/07/17 07:03:00;;;;;;;13.20;4.13;;;18.80;94.20;;;;;;5115044;28;20176;-68
2021/07/17 07:05:26;;;;;;;12.80;4.17;;;18.80;93.70;;;;;;5114333;28;20198;-67
2021/07/17 07:07:52;;;;;;;15.57;3.57;;;18.80;93.30;;;;;;5115045;28;20142;-67
2021/07/17 07:10:18;;;;;;;13.77;4.07;;;18.80;93.40;;;;;;5114383;28;20117;-67
2021/07/17 07:12:43;;;;;;;15.10;3.57;;;18.80;93.20;;;;;;5113926;28;20095;-67
2021/07/17 07:15:10;;;;;;;13.73;4.13;;;18.90;93.30;;;;;;5114013;28;20121;-68
2021/07/17 07:17:37;;;;;;;10.83;3.37;;;18.90;93.10;;;;;;5114477;28;20048;-68
2021/07/17 07:20:04;;;;;;;10.33;4.30;;;19.00;93.10;;;;;;5113469;28;20138;-68
2021/07/17 07:22:30;;;;;;;13.63;3.80;;;19.10;93.00;;;;;;5114713;28;20047;-68
2021/07/17 07:24:55;;;;;;;10.60;3.87;;;19.10;92.70;;;;;;5114449;28;20050;-68
2021/07/17 07:27:21;;;;;;;15.70;3.90;;;19.10;92.50;;;;;;5113253;28;20090;-67
2021/07/17 07:29:47;;;;;;;9.50;3.40;;;19.20;92.50;;;;;;5114402;28;20050;-68
2021/07/17 07:32:13;;;;;;;14.57;3.73;;;19.20;92.30;;;;;;5114156;28;20055;-68
2021/07/17 07:34:38;;;;;;;12.73;3.57;;;19.20;92.10;;;;;;5113443;28;20051;-68
2021/07/17 07:37:05;;;;;;;9.50;3.70;;;19.30;92.00;;;;;;5114006;28;20403;-69
2021/07/17 07:39:32;;;;;;;10.47;3.77;;;19.30;91.80;;;;;;5114177;28;20048;-68
2021/07/17 07:41:57;;;;;;;17.60;3.17;;;19.30;91.70;;;;;;5113097;28;20043;-69
2021/07/17 07:44:25;;;;;;;11.17;3.57;;;19.40;91.50;;;;;;5113535;28;20043;-68
2021/07/17 07:46:51;;;;;;;12.50;3.37;;;19.40;91.10;;;;;;5113905;28;20043;-68
2021/07/17 07:49:16;;;;;;;13.93;3.60;;;19.40;91.10;;;;;;5113153;28;20058;-68
2021/07/17 07:51:42;;;;;;;11.13;3.70;;;19.50;91.00;;;;;;5114081;28;20040;-68
2021/07/17 07:54:08;;;;;;;10.83;4.00;;;19.50;91.00;;;;;;5112341;28;20047;-69
2021/07/17 07:56:33;;;;;;;10.37;3.13;;;19.60;91.30;;;;;;5113581;28;20054;-69
2021/07/17 07:58:59;;;;;;;11.10;3.50;;;19.60;91.10;;;;;;5113580;28;20040;-70
2021/07/17 08:01:25;;;;;;;16.07;3.90;;;19.60;90.90;;;;;;5113229;28;20122;-70
2021/07/17 08:03:51;;;;;;;11.70;3.97;;;19.60;90.80;;;;;;5113847;28;20048;-69
2021/07/17 08:06:16;;;;;;;14.57;3.77;;;19.70;90.80;;;;;;5113156;28;20127;-69
2021/07/17 08:08:42;;;;;;;12.00;3.70;;;19.70;90.80;;;;;;5112843;28;20039;-68
2021/07/17 08:11:08;;;;;;;14.47;3.73;;;19.80;90.90;;;;;;5112673;28;20062;-69
2021/07/17 08:13:33;;;;;;;10.77;3.30;;;19.90;90.80;;;;;;5113392;28;20117;-69
2021/07/17 08:16:01;;;;;;;9.57;3.43;;;19.90;90.70;;;;;;5112587;28;20331;-69
2021/07/17 08:18:27;;;;;;;13.40;3.70;;;20.20;90.50;;;;;;5113545;28;20091;-68
2021/07/17 08:20:53;;;;;;;15.73;3.10;;;20.40;90.30;;;;;;5112611;28;20127;-69
2021/07/17 08:23:19;;;;;;;11.47;3.50;;;20.60;90.00;;;;;;5112143;28;20048;-69
2021/07/17 08:25:44;;;;;;;9.37;2.73;;;20.80;89.90;;;;;;5112677;28;20058;-70
2021/07/17 08:28:10;;;;;;;11.05;3.00;;;20.90;89.50;;;;;;5112807;28;20051;-69
2021/07/17 08:30:37;;;;;;;11.32;3.22;;;21.00;88.60;;;;;;5112061;28;20092;-69
2021/07/17 08:33:04;;;;;;;12.90;3.00;;;20.90;88.10;;;;;;5112759;28;20074;-69
2021/07/17 08:35:30;;;;;;;9.25;2.72;;;21.00;88.20;;;;;;5113020;28;20047;-69
2021/07/17 08:37:56;;;;;;;12.20;3.00;;;21.10;86.60;;;;;;5112251;28;20124;-67
2021/07/17 08:40:22;;;;;;;10.65;2.92;;;21.00;86.10;;;;;;5112646;28;20039;-68
2021/07/17 08:42:50;;;;;;;13.85;3.05;;;21.00;85.60;;;;;;5113181;28;20071;-67
2021/07/17 08:45:17;;;;;;;10.43;3.15;;;20.90;85.60;;;;;;5111277;28;20043;-67
2021/07/17 08:47:44;;;;;;;7.80;2.90;;;21.00;85.40;;;;;;5112526;28;20491;-69
2021/07/17 08:50:16;;;;;;;14.60;3.92;;;21.00;85.30;;;;;;5112110;28;20044;-68
2021/07/17 08:52:42;;;;;;;7.20;2.30;;;21.20;85.80;;;;;;5112557;28;20116;-67
2021/07/17 08:55:10;;;;;;;8.73;3.05;;;21.30;85.80;;;;;;5112014;28;20100;-68
2021/07/17 08:57:37;;;;;;;10.82;3.78;;;21.40;84.70;;;;;;5110540;28;20857;-68
2021/07/17 09:00:08;;;;;;;7.57;2.60;;;21.40;83.40;;;;;;5112486;28;20046;-67
2021/07/17 09:02:44;;;;;;;9.60;2.20;;;21.40;82.40;;;;;;5112718;28;20105;-67
2021/07/17 09:05:14;;;;;;;7.60;2.33;;;21.30;82.40;;;;;;5111447;28;20044;-68
2021/07/17 09:07:40;;;;;;;7.47;2.55;;;21.30;82.30;;;;;;5112370;28;20131;-67
2021/07/17 09:10:37;;;;;;;7.15;2.10;;;21.30;82.10;;;;;;5112030;28;20529;-68
2021/07/17 09:13:14;;;;;;;7.88;2.38;;;21.40;82.70;;;;;;5109443;28;20152;-69
2021/07/17 09:15:47;;;;;;;7.03;1.83;;;21.40;80.80;;;;;;5111924;28;20119;-69
2021/07/17 09:18:14;;;;;;;6.10;2.08;;;21.40;80.40;;;;;;5111574;28;20047;-69
2021/07/17 09:20:52;;;;;;;7.40;1.80;;;21.50;80.00;;;;;;5110870;28;20066;-68
2021/07/17 09:23:24;;;;;;;7.60;2.13;;;21.50;80.30;;;;;;5111657;28;20051;-69
2021/07/17 09:25:50;;;;;;;7.57;1.95;;;21.60;79.80;;;;;;5111418;28;20157;-70
2021/07/17 09:28:26;;;;;;;7.50;2.53;;;21.80;80.00;;;;;;5111326;28;20138;-69
2021/07/17 09:30:56;;;;;;;7.75;1.95;;;21.90;80.80;;;;;;5111908;28;20525;-68
2021/07/17 09:33:22;;;;;;;6.18;2.03;;;22.10;79.80;;;;;;5110523;28;20139;-69
2021/07/17 09:35:49;;;;;;;8.60;2.17;;;22.30;79.60;;;;;;5112126;28;20161;-69
2021/07/17 09:38:17;;;;;;;8.32;2.08;;;22.40;79.20;;;;;;5111307;28;20047;-69
2021/07/17 09:40:44;;;;;;;7.35;2.42;;;22.50;78.20;;;;;;5110704;28;20101;-68
2021/07/17 09:43:10;;;;;;;8.13;1.95;;;22.60;77.00;;;;;;5111526;28;20051;-69
2021/07/17 09:45:41;;;;;;;8.13;2.05;;;22.70;75.70;;;;;;5111698;28;20047;-68
2021/07/17 09:48:23;;;;;;;9.48;2.17;;;22.60;75.20;;;;;;5110405;28;20044;-68
2021/07/17 09:50:50;;;;;;;7.40;1.85;;;22.70;73.40;;;;;;5111386;28;20047;-68
2021/07/17 09:53:39;;;;;;;10.00;2.65;;;22.60;72.90;;;;;;5110979;28;20049;-68
2021/07/17 09:56:10;;;;;;;9.20;2.20;;;22.70;73.90;;;;;;5111221;28;20126;-68
2021/07/17 09:58:38;;;;;;;;;;;22.70;73.10;;;;;;5111857;28;20058;-69
2021/07/17 10:01:13;;;;;;;7.78;2.03;;;22.70;71.80;;;;;;5110394;28;20236;-68
2021/07/17 10:03:39;;;;;;;7.70;2.60;;;22.70;73.90;;;;;;5111468;28;20101;-68
2021/07/17 10:06:07;;;;;;;6.43;2.42;;;22.70;73.80;;;;;;5110876;28;20126;-68
2021/07/17 10:08:36;;;;;;;6.53;2.10;;;22.80;73.50;;;;;;5110318;28;20048;-68
2021/07/17 10:11:11;;;;;;;8.45;2.10;;;22.90;73.20;;;;;;5110860;28;20044;-67
2021/07/17 10:13:39;;;;;;;5.63;2.05;;;22.90;72.60;;;;;;5110836;28;20047;-68
2021/07/17 10:16:22;;;;;;;9.00;2.13;;;22.80;73.40;;;;;;5109885;28;20095;-68
2021/07/17 10:18:49;;;;;;;7.55;2.10;;;22.80;72.90;;;;;;5111190;28;20044;-69
2021/07/17 10:21:15;;;;;;;5.15;1.80;;;22.70;72.80;;;;;;5110829;28;20097;-68
2021/07/17 10:23:42;;;;;;;7.82;2.40;;;22.70;72.50;;;;;;5110088;28;20506;-68
2021/07/17 10:26:09;;;;;;;9.52;2.08;;;22.70;72.60;;;;;;5110632;28;20108;-68
2021/07/17 10:28:35;;;;;;;7.43;1.98;;;22.70;72.90;;;;;;5110976;28;20158;-68
2021/07/17 10:31:04;;;;;;;6.40;1.80;;;22.70;72.90;;;;;;5109938;28;20054;-68
2021/07/17 10:33:31;;;;;;;7.30;1.45;;;22.70;73.10;;;;;;5111057;28;20059;-67
2021/07/17 10:36:02;;;;;;;8.73;1.92;;;22.80;73.30;;;;;;5110140;28;20380;-68
2021/07/17 10:38:32;;;;;;;7.20;1.58;;;22.90;73.00;;;;;;5110775;28;20055;-68
2021/07/17 10:40:59;;;;;;;6.85;1.63;;;22.90;72.60;;;;;;5110869;28;20043;-68
2021/07/17 10:43:25;;;;;;;5.93;2.17;;;22.90;71.90;;;;;;5109778;28;20120;-68
2021/07/17 10:45:51;;;;;;;6.82;1.67;;;23.00;72.30;;;;;;5111075;28;20044;-67
2021/07/17 10:48:22;;;;;;;5.70;1.60;;;23.10;71.40;;;;;;5110511;28;20072;-69
2021/07/17 10:50:48;;;;;;;8.95;1.98;;;23.20;70.80;;;;;;5110095;28;20050;-67
2021/07/17 10:53:45;;;;;;;4.47;1.80;;;23.20;69.90;;;;;;5110597;28;20047;-68
2021/07/17 10:56:29;;;;;;;4.80;1.60;;;23.20;71.20;;;;;;5110398;28;20108;-68
2021/07/17 10:59:12;;;;;;;4.72;1.70;;;23.20;69.30;;;;;;5109638;28;20496;-68
2021/07/17 11:02:02;;;;;;;6.93;2.03;;;23.20;69.30;;;;;;5110432;28;20044;-67
2021/07/17 11:04:44;;;;;;;5.80;1.50;;;23.20;68.80;;;;;;5109820;28;20618;-68
2021/07/17 11:07:15;;;;;;;;;;;23.30;68.20;;;;;;5110786;28;20055;-68
2021/07/17 11:09:56;;;;;;;5.28;1.48;;;23.30;69.00;;;;;;5110585;28;19920;-67
2021/07/17 11:12:25;;;;;;;4.78;1.42;;;23.30;69.90;;;;;;5109462;28;20056;-67
2021/07/17 11:14:52;;;;;;;4.38;1.27;;;23.40;69.00;;;;;;5110796;28;20451;-68
2021/07/17 11:17:40;;;;;;;5.88;1.55;;;23.40;68.20;;;;;;5110039;28;20055;-68
2021/07/17 11:20:38;;;;;;;6.72;1.33;;;23.40;66.30;;;;;;5110034;28;20059;-68
2021/07/17 11:23:06;;;;;;;4.18;1.70;;;23.50;67.20;;;;;;5114202;28;20199;-67
2021/07/17 11:25:32;;;;;;;3.22;1.15;;;23.60;67.70;;;;;;5113398;28;20047;-67
2021/07/17 11:27:58;;;;;;;3.80;1.30;;;23.60;67.10;;;;;;5114210;28;20051;-68
2021/07/17 11:30:25;;;;;;;4.30;1.33;;;23.60;66.80;;;;;;5114213;28;20044;-68
2021/07/17 11:33:05;;;;;;;4.50;1.40;;;23.60;67.80;;;;;;5113466;28;20047;-69
2021/07/17 11:35:36;;;;;;;6.40;1.60;;;23.70;66.00;;;;;;5114296;28;20051;-68
2021/07/17 11:38:03;;;;;;;5.40;1.40;;;23.70;66.50;;;;;;5113848;28;20321;-68
2021/07/17 11:40:29;;;;;;;4.15;1.40;;;23.70;66.80;;;;;;5113089;28;20447;-69
2021/07/17 11:43:06;;;;;;;4.95;1.60;;;23.70;66.10;;;;;;5113849;28;20101;-67
2021/07/17 11:45:33;;;;;;;4.03;1.40;;;23.70;66.70;;;;;;5113737;28;20067;-67
2021/07/17 11:48:12;;;;;;;7.10;1.63;;;23.90;67.50;;;;;;5113074;28;20044;-68
2021/07/17 11:50:40;;;;;;;6.93;1.60;;;24.00;67.10;;;;;;5114185;28;20036;-67
2021/07/17 11:53:13;;;;;;;4.05;1.42;;;24.00;67.20;;;;;;5112891;28;20054;-68
2021/07/17 11:55:39;;;;;;;4.25;1.70;;;24.00;66.00;;;;;;5113849;28;20470;-68
2021/07/17 11:58:16;;;;;;;5.18;1.58;;;24.00;65.90;;;;;;5113630;28;20082;-69
2021/07/17 12:00:42;;;;;;;6.13;1.70;;;24.00;66.30;;;;;;5113263;28;20054;-68
2021/07/17 12:03:08;;;;;;;5.20;1.35;;;24.00;66.50;;;;;;5113204;28;20048;-67
2021/07/17 12:05:34;;;;;;;5.43;1.60;;;24.00;66.30;;;;;;5113645;28;20093;-68
2021/07/17 12:08:00;;;;;;;5.22;1.40;;;24.00;66.60;;;;;;5112452;28;20058;-68
2021/07/17 12:10:28;;;;;;;3.47;1.30;;;24.00;67.10;;;;;;5113521;28;20429;-69
2021/07/17 12:13:03;;;;;;;5.53;1.73;;;24.10;66.80;;;;;;5113057;28;20441;-68
2021/07/17 12:15:33;;;;;;;5.65;1.30;;;24.10;66.50;;;;;;5112778;28;20484;-68
2021/07/17 12:18:03;;;;;;;4.47;2.00;;;24.20;66.60;;;;;;5113557;28;20043;-68
2021/07/17 12:20:41;;;;;;;5.75;1.60;;;24.20;67.30;;;;;;5113115;28;20337;-68
2021/07/17 12:23:19;;;;;;;4.32;1.60;;;24.20;66.90;;;;;;5112136;28;20092;-68
2021/07/17 12:25:48;;;;;;;4.47;1.30;;;24.20;66.40;;;;;;5113205;28;20071;-68
2021/07/17 12:28:17;;;;;;;6.80;1.60;;;24.20;67.30;;;;;;5112459;28;20048;-69
2021/07/17 12:30:54;;;;;;;6.22;1.60;;;24.20;67.30;;;;;;5112609;28;20492;-68
2021/07/17 12:33:29;;;;;;;5.20;1.63;;;24.10;67.20;;;;;;5112626;28;20085;-68
2021/07/17 12:36:06;;;;;;;4.60;1.48;;;24.20;67.30;;;;;;5112462;28;20074;-68
2021/07/17 12:38:35;;;;;;;4.25;1.40;;;24.10;66.40;;;;;;5113266;28;20051;-68
2021/07/17 12:41:06;;;;;;;5.63;1.60;;;24.10;67.00;;;;;;5112906;28;20052;-68